sensor_id;sensor_type;location;lat;lon;timestamp;temperature;humidity
51855;DHT22;37895;53.240;6.572;2024-03-06T00:00:57;5.40;99.90
51855;DHT22;37895;53.240;6.572;2024-03-06T00:03:23;5.10;99.90
51855;DHT22;37895;53.240;6.572;2024-03-06T00:05:48;5.10;99.90
51855;DHT22;37895;53.240;6.572;2024-03-06T00:08:14;5.10;99.90
51855;DHT22;37895;53.240;6.572;2024-03-06T00:10:41;5.10;99.90
51855;DHT22;37895;53.240;6.572;2024-03-06T00:13:07;5.10;99.90
51855;DHT22;37895;53.240;6.572;2024-03-06T00:15:33;5.40;99.90
51855;DHT22;37895;53.240;6.572;2024-03-06T00:17:59;5.10;99.90
51855;DHT22;37895;53.240;6.572;2024-03-06T00:20:25;5.40;99.90
51855;DHT22;37895;53.240;6.572;2024-03-06T00:22:51;5.10;99.90
51855;DHT22;37895;53.240;6.572;2024-03-06T00:25:17;5.10;99.90
51855;DHT22;37895;53.240;6.572;2024-03-06T00:27:42;5.10;99.90
51855;DHT22;37895;53.240;6.572;2024-03-06T00:30:08;5.10;99.90
51855;DHT22;37895;53.240;6.572;2024-03-06T00:32:34;5.10;99.90
51855;DHT22;37895;53.240;6.572;2024-03-06T00:34:59;5.10;99.90
51855;DHT22;37895;53.240;6.572;2024-03-06T00:37:25;5.10;99.90
51855;DHT22;37895;53.240;6.572;2024-03-06T00:39:50;5.10;99.90
51855;DHT22;37895;53.240;6.572;2024-03-06T00:42:16;5.10;99.90
51855;DHT22;37895;53.240;6.572;2024-03-06T00:44:42;5.40;99.90
51855;DHT22;37895;53.240;6.572;2024-03-06T00:47:07;5.10;99.90
51855;DHT22;37895;53.240;6.572;2024-03-06T00:49:33;5.10;99.90
51855;DHT22;37895;53.240;6.572;2024-03-06T00:51:58;5.10;99.90
51855;DHT22;37895;53.240;6.572;2024-03-06T00:54:24;5.10;99.90
51855;DHT22;37895;53.240;6.572;2024-03-06T00:56:50;5.10;99.90
51855;DHT22;37895;53.240;6.572;2024-03-06T00:59:15;5.00;99.90
51855;DHT22;37895;53.240;6.572;2024-03-06T01:01:41;5.10;99.90
51855;DHT22;37895;53.240;6.572;2024-03-06T01:04:07;5.30;99.90
51855;DHT22;37895;53.240;6.572;2024-03-06T01:06:32;5.00;99.90
51855;DHT22;37895;53.240;6.572;2024-03-06T01:08:58;5.00;99.90
51855;DHT22;37895;53.240;6.572;2024-03-06T01:11:24;5.00;99.90
51855;DHT22;37895;53.240;6.572;2024-03-06T01:13:50;5.40;99.90
51855;DHT22;37895;53.240;6.572;2024-03-06T01:16:16;5.40;99.90
51855;DHT22;37895;53.240;6.572;2024-03-06T01:18:42;5.00;99.90
51855;DHT22;37895;53.240;6.572;2024-03-06T01:21:08;5.00;99.90
51855;DHT22;37895;53.240;6.572;2024-03-06T01:23:33;5.30;99.90
51855;DHT22;37895;53.240;6.572;2024-03-06T01:25:59;5.00;99.90
51855;DHT22;37895;53.240;6.572;2024-03-06T01:28:24;5.00;99.90
51855;DHT22;37895;53.240;6.572;2024-03-06T01:30:50;5.00;99.90
51855;DHT22;37895;53.240;6.572;2024-03-06T01:33:16;5.00;99.90
51855;DHT22;37895;53.240;6.572;2024-03-06T01:35:41;4.90;99.90
51855;DHT22;37895;53.240;6.572;2024-03-06T01:38:07;4.90;99.90
51855;DHT22;37895;53.240;6.572;2024-03-06T01:40:34;4.90;99.90
51855;DHT22;37895;53.240;6.572;2024-03-06T01:43:00;4.90;99.90
51855;DHT22;37895;53.240;6.572;2024-03-06T01:45:26;5.30;99.90
51855;DHT22;37895;53.240;6.572;2024-03-06T01:47:52;5.10;99.90
51855;DHT22;37895;53.240;6.572;2024-03-06T01:50:18;4.80;99.90
51855;DHT22;37895;53.240;6.572;2024-03-06T01:52:44;4.90;99.90
51855;DHT22;37895;53.240;6.572;2024-03-06T01:55:12;4.80;99.90
51855;DHT22;37895;53.240;6.572;2024-03-06T01:57:39;4.90;99.90
51855;DHT22;37895;53.240;6.572;2024-03-06T02:00:06;4.90;99.90
51855;DHT22;37895;53.240;6.572;2024-03-06T02:02:34;4.90;99.90
51855;DHT22;37895;53.240;6.572;2024-03-06T02:04:59;4.80;99.90
51855;DHT22;37895;53.240;6.572;2024-03-06T02:07:25;4.90;99.90
51855;DHT22;37895;53.240;6.572;2024-03-06T02:09:51;4.90;99.90
51855;DHT22;37895;53.240;6.572;2024-03-06T02:12:17;4.80;99.90
51855;DHT22;37895;53.240;6.572;2024-03-06T02:14:44;4.80;99.90
51855;DHT22;37895;53.240;6.572;2024-03-06T02:17:09;4.80;99.90
51855;DHT22;37895;53.240;6.572;2024-03-06T02:19:42;4.80;99.90
51855;DHT22;37895;53.240;6.572;2024-03-06T02:22:10;5.00;99.90
51855;DHT22;37895;53.240;6.572;2024-03-06T02:24:36;5.30;99.90
51855;DHT22;37895;53.240;6.572;2024-03-06T02:27:05;4.80;99.90
51855;DHT22;37895;53.240;6.572;2024-03-06T02:29:31;5.50;99.90
51855;DHT22;37895;53.240;6.572;2024-03-06T02:31:58;4.80;99.90
51855;DHT22;37895;53.240;6.572;2024-03-06T02:34:24;4.80;99.90
51855;DHT22;37895;53.240;6.572;2024-03-06T02:36:51;5.20;99.90
51855;DHT22;37895;53.240;6.572;2024-03-06T02:39:17;4.80;99.90
51855;DHT22;37895;53.240;6.572;2024-03-06T02:41:43;4.80;99.90
51855;DHT22;37895;53.240;6.572;2024-03-06T02:44:08;4.70;99.90
51855;DHT22;37895;53.240;6.572;2024-03-06T02:46:34;4.70;99.90
51855;DHT22;37895;53.240;6.572;2024-03-06T02:49:00;4.80;99.90
51855;DHT22;37895;53.240;6.572;2024-03-06T02:51:25;4.70;99.90
51855;DHT22;37895;53.240;6.572;2024-03-06T02:53:51;4.70;99.90
51855;DHT22;37895;53.240;6.572;2024-03-06T02:56:19;4.70;99.90
51855;DHT22;37895;53.240;6.572;2024-03-06T02:58:45;4.80;99.90
51855;DHT22;37895;53.240;6.572;2024-03-06T03:01:11;4.70;99.90
51855;DHT22;37895;53.240;6.572;2024-03-06T03:03:36;4.70;99.90
51855;DHT22;37895;53.240;6.572;2024-03-06T03:06:21;4.70;99.90
51855;DHT22;37895;53.240;6.572;2024-03-06T03:08:49;4.70;99.90
51855;DHT22;37895;53.240;6.572;2024-03-06T03:11:15;4.70;99.90
51855;DHT22;37895;53.240;6.572;2024-03-06T03:13:41;4.90;99.90
51855;DHT22;37895;53.240;6.572;2024-03-06T03:16:06;4.70;99.90
51855;DHT22;37895;53.240;6.572;2024-03-06T03:18:32;4.70;99.90
51855;DHT22;37895;53.240;6.572;2024-03-06T03:20:58;4.70;99.90
51855;DHT22;37895;53.240;6.572;2024-03-06T03:23:23;5.00;99.90
51855;DHT22;37895;53.240;6.572;2024-03-06T03:25:49;5.00;99.90
51855;DHT22;37895;53.240;6.572;2024-03-06T03:28:15;4.70;99.90
51855;DHT22;37895;53.240;6.572;2024-03-06T03:30:43;4.70;99.90
51855;DHT22;37895;53.240;6.572;2024-03-06T03:33:09;4.70;99.90
51855;DHT22;37895;53.240;6.572;2024-03-06T03:35:35;4.80;99.90
51855;DHT22;37895;53.240;6.572;2024-03-06T03:38:00;4.70;99.90
51855;DHT22;37895;53.240;6.572;2024-03-06T03:40:26;4.70;99.90
51855;DHT22;37895;53.240;6.572;2024-03-06T03:42:52;4.70;99.90
51855;DHT22;37895;53.240;6.572;2024-03-06T03:45:17;4.70;99.90
51855;DHT22;37895;53.240;6.572;2024-03-06T03:47:43;4.70;99.90
51855;DHT22;37895;53.240;6.572;2024-03-06T03:50:09;4.70;99.90
51855;DHT22;37895;53.240;6.572;2024-03-06T03:52:35;4.70;99.90
51855;DHT22;37895;53.240;6.572;2024-03-06T03:55:00;4.70;99.90
51855;DHT22;37895;53.240;6.572;2024-03-06T03:57:26;4.70;99.90
51855;DHT22;37895;53.240;6.572;2024-03-06T03:59:52;4.70;99.90
51855;DHT22;37895;53.240;6.572;2024-03-06T04:02:19;4.90;99.90
51855;DHT22;37895;53.240;6.572;2024-03-06T04:04:44;4.80;99.90
51855;DHT22;37895;53.240;6.572;2024-03-06T04:07:10;4.70;99.90
51855;DHT22;37895;53.240;6.572;2024-03-06T04:09:36;4.60;99.90
51855;DHT22;37895;53.240;6.572;2024-03-06T04:12:02;4.70;99.90
51855;DHT22;37895;53.240;6.572;2024-03-06T04:14:29;4.60;99.90
51855;DHT22;37895;53.240;6.572;2024-03-06T04:16:55;4.60;99.90
51855;DHT22;37895;53.240;6.572;2024-03-06T04:19:21;4.60;99.90
51855;DHT22;37895;53.240;6.572;2024-03-06T04:21:47;4.60;99.90
51855;DHT22;37895;53.240;6.572;2024-03-06T04:24:12;4.90;99.90
51855;DHT22;37895;53.240;6.572;2024-03-06T04:26:38;4.60;99.90
51855;DHT22;37895;53.240;6.572;2024-03-06T04:29:03;4.60;99.90
51855;DHT22;37895;53.240;6.572;2024-03-06T04:31:29;4.70;99.90
51855;DHT22;37895;53.240;6.572;2024-03-06T04:33:55;4.70;99.90
51855;DHT22;37895;53.240;6.572;2024-03-06T04:36:20;4.60;99.90
51855;DHT22;37895;53.240;6.572;2024-03-06T04:38:46;4.60;99.90
51855;DHT22;37895;53.240;6.572;2024-03-06T04:41:11;4.60;99.90
51855;DHT22;37895;53.240;6.572;2024-03-06T04:43:37;4.60;99.90
51855;DHT22;37895;53.240;6.572;2024-03-06T04:46:03;4.60;99.90
51855;DHT22;37895;53.240;6.572;2024-03-06T04:48:29;4.60;99.90
51855;DHT22;37895;53.240;6.572;2024-03-06T04:50:55;4.60;99.90
51855;DHT22;37895;53.240;6.572;2024-03-06T04:53:21;4.60;99.90
51855;DHT22;37895;53.240;6.572;2024-03-06T04:55:47;4.60;99.90
51855;DHT22;37895;53.240;6.572;2024-03-06T04:58:12;5.00;99.90
51855;DHT22;37895;53.240;6.572;2024-03-06T05:00:38;5.10;99.90
51855;DHT22;37895;53.240;6.572;2024-03-06T05:03:04;5.30;99.90
51855;DHT22;37895;53.240;6.572;2024-03-06T05:05:30;4.60;99.90
51855;DHT22;37895;53.240;6.572;2024-03-06T05:07:56;4.60;99.90
51855;DHT22;37895;53.240;6.572;2024-03-06T05:10:21;4.90;99.90
51855;DHT22;37895;53.240;6.572;2024-03-06T05:12:47;4.60;99.90
51855;DHT22;37895;53.240;6.572;2024-03-06T05:15:13;4.70;99.90
51855;DHT22;37895;53.240;6.572;2024-03-06T05:17:39;4.60;99.90
51855;DHT22;37895;53.240;6.572;2024-03-06T05:20:05;4.90;99.90
51855;DHT22;37895;53.240;6.572;2024-03-06T05:22:31;4.60;99.90
51855;DHT22;37895;53.240;6.572;2024-03-06T05:24:57;4.60;99.90
51855;DHT22;37895;53.240;6.572;2024-03-06T05:27:24;4.60;99.90
51855;DHT22;37895;53.240;6.572;2024-03-06T05:29:50;4.60;99.90
51855;DHT22;37895;53.240;6.572;2024-03-06T05:32:15;4.60;99.90
51855;DHT22;37895;53.240;6.572;2024-03-06T05:34:41;4.60;99.90
51855;DHT22;37895;53.240;6.572;2024-03-06T05:37:07;4.60;99.90
51855;DHT22;37895;53.240;6.572;2024-03-06T05:39:33;4.50;99.90
51855;DHT22;37895;53.240;6.572;2024-03-06T05:42:03;4.90;99.90
51855;DHT22;37895;53.240;6.572;2024-03-06T05:44:30;4.60;99.90
51855;DHT22;37895;53.240;6.572;2024-03-06T05:46:57;4.60;99.90
51855;DHT22;37895;53.240;6.572;2024-03-06T05:49:22;4.60;99.90
51855;DHT22;37895;53.240;6.572;2024-03-06T05:51:48;4.60;99.90
51855;DHT22;37895;53.240;6.572;2024-03-06T05:54:14;5.20;99.90
51855;DHT22;37895;53.240;6.572;2024-03-06T05:56:39;5.20;99.90
51855;DHT22;37895;53.240;6.572;2024-03-06T05:59:05;4.90;99.90
51855;DHT22;37895;53.240;6.572;2024-03-06T06:01:34;4.60;99.90
51855;DHT22;37895;53.240;6.572;2024-03-06T06:04:00;4.60;99.90
51855;DHT22;37895;53.240;6.572;2024-03-06T06:06:26;4.60;99.90
51855;DHT22;37895;53.240;6.572;2024-03-06T06:08:52;5.20;99.90
51855;DHT22;37895;53.240;6.572;2024-03-06T06:11:17;4.60;99.90
51855;DHT22;37895;53.240;6.572;2024-03-06T06:13:43;4.70;99.90
51855;DHT22;37895;53.240;6.572;2024-03-06T06:16:09;4.70;99.90
51855;DHT22;37895;53.240;6.572;2024-03-06T06:18:34;4.70;99.90
51855;DHT22;37895;53.240;6.572;2024-03-06T06:21:00;5.10;99.90
51855;DHT22;37895;53.240;6.572;2024-03-06T06:23:26;4.70;99.90
51855;DHT22;37895;53.240;6.572;2024-03-06T06:25:51;4.70;99.90
51855;DHT22;37895;53.240;6.572;2024-03-06T06:28:17;4.80;99.90
51855;DHT22;37895;53.240;6.572;2024-03-06T06:30:43;4.70;99.90
51855;DHT22;37895;53.240;6.572;2024-03-06T06:33:08;4.70;99.90
51855;DHT22;37895;53.240;6.572;2024-03-06T06:35:35;4.80;99.90
51855;DHT22;37895;53.240;6.572;2024-03-06T06:38:01;4.70;99.90
51855;DHT22;37895;53.240;6.572;2024-03-06T06:40:27;4.70;99.90
51855;DHT22;37895;53.240;6.572;2024-03-06T06:42:55;4.70;99.90
51855;DHT22;37895;53.240;6.572;2024-03-06T06:45:21;4.70;99.90
51855;DHT22;37895;53.240;6.572;2024-03-06T06:47:48;4.70;99.90
51855;DHT22;37895;53.240;6.572;2024-03-06T06:50:14;4.70;99.90
51855;DHT22;37895;53.240;6.572;2024-03-06T06:52:41;4.80;99.90
51855;DHT22;37895;53.240;6.572;2024-03-06T06:55:06;4.70;99.90
51855;DHT22;37895;53.240;6.572;2024-03-06T06:57:33;4.70;99.90
51855;DHT22;37895;53.240;6.572;2024-03-06T07:00:00;4.80;99.90
51855;DHT22;37895;53.240;6.572;2024-03-06T07:02:25;4.80;99.90
51855;DHT22;37895;53.240;6.572;2024-03-06T07:04:52;4.80;99.90
51855;DHT22;37895;53.240;6.572;2024-03-06T07:07:17;4.80;99.90
51855;DHT22;37895;53.240;6.572;2024-03-06T07:09:43;4.80;99.90
51855;DHT22;37895;53.240;6.572;2024-03-06T07:12:09;4.80;99.90
51855;DHT22;37895;53.240;6.572;2024-03-06T07:14:35;5.10;99.90
51855;DHT22;37895;53.240;6.572;2024-03-06T07:17:00;5.00;99.90
51855;DHT22;37895;53.240;6.572;2024-03-06T07:19:26;4.80;99.90
51855;DHT22;37895;53.240;6.572;2024-03-06T07:21:52;5.10;99.90
51855;DHT22;37895;53.240;6.572;2024-03-06T07:24:19;4.80;99.90
51855;DHT22;37895;53.240;6.572;2024-03-06T07:26:44;5.00;99.90
51855;DHT22;37895;53.240;6.572;2024-03-06T07:29:10;4.90;99.90
51855;DHT22;37895;53.240;6.572;2024-03-06T07:31:41;4.90;99.90
51855;DHT22;37895;53.240;6.572;2024-03-06T07:34:08;4.90;99.90
51855;DHT22;37895;53.240;6.572;2024-03-06T07:36:34;5.00;99.90
51855;DHT22;37895;53.240;6.572;2024-03-06T07:39:01;5.00;99.90
51855;DHT22;37895;53.240;6.572;2024-03-06T07:41:27;5.00;99.90
51855;DHT22;37895;53.240;6.572;2024-03-06T07:43:52;5.00;99.90
51855;DHT22;37895;53.240;6.572;2024-03-06T07:46:18;5.10;99.90
51855;DHT22;37895;53.240;6.572;2024-03-06T07:48:44;5.10;99.90
51855;DHT22;37895;53.240;6.572;2024-03-06T07:51:10;5.10;99.90
51855;DHT22;37895;53.240;6.572;2024-03-06T07:53:35;5.10;99.90
51855;DHT22;37895;53.240;6.572;2024-03-06T07:56:02;5.80;99.90
51855;DHT22;37895;53.240;6.572;2024-03-06T07:58:28;5.20;99.90
51855;DHT22;37895;53.240;6.572;2024-03-06T08:00:54;5.20;99.90
51855;DHT22;37895;53.240;6.572;2024-03-06T08:03:22;5.20;99.90
51855;DHT22;37895;53.240;6.572;2024-03-06T08:05:51;5.20;99.90
51855;DHT22;37895;53.240;6.572;2024-03-06T08:08:16;5.30;99.90
51855;DHT22;37895;53.240;6.572;2024-03-06T08:10:42;5.30;99.90
51855;DHT22;37895;53.240;6.572;2024-03-06T08:13:07;5.40;99.90
51855;DHT22;37895;53.240;6.572;2024-03-06T08:15:33;5.60;99.90
51855;DHT22;37895;53.240;6.572;2024-03-06T08:17:59;5.70;99.90
51855;DHT22;37895;53.240;6.572;2024-03-06T08:20:24;5.30;99.90
51855;DHT22;37895;53.240;6.572;2024-03-06T08:22:50;5.40;99.90
51855;DHT22;37895;53.240;6.572;2024-03-06T08:25:16;5.40;99.90
51855;DHT22;37895;53.240;6.572;2024-03-06T08:27:42;5.50;99.90
51855;DHT22;37895;53.240;6.572;2024-03-06T08:30:08;5.50;99.90
51855;DHT22;37895;53.240;6.572;2024-03-06T08:32:35;5.40;99.90
51855;DHT22;37895;53.240;6.572;2024-03-06T08:35:11;5.40;99.90
51855;DHT22;37895;53.240;6.572;2024-03-06T08:37:41;5.50;99.90
51855;DHT22;37895;53.240;6.572;2024-03-06T08:40:07;5.50;99.90
51855;DHT22;37895;53.240;6.572;2024-03-06T08:42:33;5.60;99.90
51855;DHT22;37895;53.240;6.572;2024-03-06T08:44:59;5.70;99.90
51855;DHT22;37895;53.240;6.572;2024-03-06T08:47:24;5.70;99.90
51855;DHT22;37895;53.240;6.572;2024-03-06T08:49:50;5.80;99.90
51855;DHT22;37895;53.240;6.572;2024-03-06T08:52:16;5.90;99.90
51855;DHT22;37895;53.240;6.572;2024-03-06T08:54:42;5.90;99.90
51855;DHT22;37895;53.240;6.572;2024-03-06T08:57:08;6.50;99.90
51855;DHT22;37895;53.240;6.572;2024-03-06T08:59:34;6.00;99.90
51855;DHT22;37895;53.240;6.572;2024-03-06T09:02:11;6.10;99.90
51855;DHT22;37895;53.240;6.572;2024-03-06T09:04:37;6.10;99.90
51855;DHT22;37895;53.240;6.572;2024-03-06T09:07:03;6.20;99.90
51855;DHT22;37895;53.240;6.572;2024-03-06T09:09:29;6.20;99.90
51855;DHT22;37895;53.240;6.572;2024-03-06T09:11:55;6.20;99.90
51855;DHT22;37895;53.240;6.572;2024-03-06T09:14:20;6.30;99.90
51855;DHT22;37895;53.240;6.572;2024-03-06T09:16:46;6.80;99.90
51855;DHT22;37895;53.240;6.572;2024-03-06T09:19:11;6.40;99.90
51855;DHT22;37895;53.240;6.572;2024-03-06T09:21:37;6.40;99.90
51855;DHT22;37895;53.240;6.572;2024-03-06T09:24:03;6.50;99.90
51855;DHT22;37895;53.240;6.572;2024-03-06T09:26:28;6.50;99.90
51855;DHT22;37895;53.240;6.572;2024-03-06T09:28:54;6.60;99.90
51855;DHT22;37895;53.240;6.572;2024-03-06T09:31:20;6.70;99.90
51855;DHT22;37895;53.240;6.572;2024-03-06T09:33:46;6.70;99.90
51855;DHT22;37895;53.240;6.572;2024-03-06T09:36:11;6.70;99.90
51855;DHT22;37895;53.240;6.572;2024-03-06T09:38:40;6.80;99.90
51855;DHT22;37895;53.240;6.572;2024-03-06T09:41:07;6.80;99.90
51855;DHT22;37895;53.240;6.572;2024-03-06T09:43:33;6.90;99.90
51855;DHT22;37895;53.240;6.572;2024-03-06T09:45:59;7.00;99.90
51855;DHT22;37895;53.240;6.572;2024-03-06T09:48:28;7.10;99.90
51855;DHT22;37895;53.240;6.572;2024-03-06T09:51:00;7.20;99.90
51855;DHT22;37895;53.240;6.572;2024-03-06T09:53:26;7.20;99.90
51855;DHT22;37895;53.240;6.572;2024-03-06T09:55:52;7.30;99.90
51855;DHT22;37895;53.240;6.572;2024-03-06T09:58:18;7.40;99.90
51855;DHT22;37895;53.240;6.572;2024-03-06T10:00:44;7.50;99.90
51855;DHT22;37895;53.240;6.572;2024-03-06T10:03:13;7.60;99.90
51855;DHT22;37895;53.240;6.572;2024-03-06T10:05:38;7.70;99.90
51855;DHT22;37895;53.240;6.572;2024-03-06T10:08:04;7.80;99.90
51855;DHT22;37895;53.240;6.572;2024-03-06T10:10:30;7.90;99.90
51855;DHT22;37895;53.240;6.572;2024-03-06T10:12:56;8.00;99.90
51855;DHT22;37895;53.240;6.572;2024-03-06T10:15:22;8.00;99.90
51855;DHT22;37895;53.240;6.572;2024-03-06T10:17:48;8.00;99.90
51855;DHT22;37895;53.240;6.572;2024-03-06T10:20:19;8.10;99.90
51855;DHT22;37895;53.240;6.572;2024-03-06T10:22:52;8.20;99.90
51855;DHT22;37895;53.240;6.572;2024-03-06T10:25:22;8.20;99.90
51855;DHT22;37895;53.240;6.572;2024-03-06T10:28:10;8.30;99.90
51855;DHT22;37895;53.240;6.572;2024-03-06T10:30:38;8.30;99.90
51855;DHT22;37895;53.240;6.572;2024-03-06T10:33:09;8.30;99.90
51855;DHT22;37895;53.240;6.572;2024-03-06T10:35:36;8.30;99.90
51855;DHT22;37895;53.240;6.572;2024-03-06T10:38:06;8.40;99.90
51855;DHT22;37895;53.240;6.572;2024-03-06T10:40:43;8.50;99.90
51855;DHT22;37895;53.240;6.572;2024-03-06T10:43:10;8.40;99.90
51855;DHT22;37895;53.240;6.572;2024-03-06T10:46:00;8.40;99.90
51855;DHT22;37895;53.240;6.572;2024-03-06T10:48:28;8.40;99.90
51855;DHT22;37895;53.240;6.572;2024-03-06T10:50:55;8.40;99.90
51855;DHT22;37895;53.240;6.572;2024-03-06T10:53:22;8.50;99.90
51855;DHT22;37895;53.240;6.572;2024-03-06T10:55:49;8.50;99.90
51855;DHT22;37895;53.240;6.572;2024-03-06T10:58:15;8.50;99.90
51855;DHT22;37895;53.240;6.572;2024-03-06T11:00:45;8.40;99.90
51855;DHT22;37895;53.240;6.572;2024-03-06T11:03:14;8.50;99.90
51855;DHT22;37895;53.240;6.572;2024-03-06T11:05:41;8.50;99.90
51855;DHT22;37895;53.240;6.572;2024-03-06T11:08:11;8.50;99.90
51855;DHT22;37895;53.240;6.572;2024-03-06T11:10:38;8.40;99.90
51855;DHT22;37895;53.240;6.572;2024-03-06T11:15:46;8.50;99.90
51855;DHT22;37895;53.240;6.572;2024-03-06T11:23:28;8.60;99.90
51855;DHT22;37895;53.240;6.572;2024-03-06T11:28:20;8.50;99.90
51855;DHT22;37895;53.240;6.572;2024-03-06T11:30:57;8.60;99.90
51855;DHT22;37895;53.240;6.572;2024-03-06T11:33:46;8.70;99.90
51855;DHT22;37895;53.240;6.572;2024-03-06T11:38:51;8.80;99.90
51855;DHT22;37895;53.240;6.572;2024-03-06T11:41:26;8.90;99.90
51855;DHT22;37895;53.240;6.572;2024-03-06T11:43:53;9.00;99.90
51855;DHT22;37895;53.240;6.572;2024-03-06T11:46:20;9.00;99.90
51855;DHT22;37895;53.240;6.572;2024-03-06T11:48:55;9.10;99.90
51855;DHT22;37895;53.240;6.572;2024-03-06T11:51:22;8.90;99.90
51855;DHT22;37895;53.240;6.572;2024-03-06T11:53:52;9.00;99.90
51855;DHT22;37895;53.240;6.572;2024-03-06T11:56:18;9.00;99.90
51855;DHT22;37895;53.240;6.572;2024-03-06T11:58:45;9.10;99.90
51855;DHT22;37895;53.240;6.572;2024-03-06T12:01:11;9.10;99.90
51855;DHT22;37895;53.240;6.572;2024-03-06T12:03:36;9.20;99.90
51855;DHT22;37895;53.240;6.572;2024-03-06T12:06:02;9.20;99.90
51855;DHT22;37895;53.240;6.572;2024-03-06T12:08:28;9.10;99.90
51855;DHT22;37895;53.240;6.572;2024-03-06T12:10:54;9.10;99.90
51855;DHT22;37895;53.240;6.572;2024-03-06T12:13:23;9.20;99.90
51855;DHT22;37895;53.240;6.572;2024-03-06T12:15:50;9.40;99.90
51855;DHT22;37895;53.240;6.572;2024-03-06T12:18:17;9.50;99.90
51855;DHT22;37895;53.240;6.572;2024-03-06T12:20:44;9.60;99.90
51855;DHT22;37895;53.240;6.572;2024-03-06T12:23:19;9.60;99.90
51855;DHT22;37895;53.240;6.572;2024-03-06T12:25:47;9.60;99.90
51855;DHT22;37895;53.240;6.572;2024-03-06T12:28:12;9.70;99.90
51855;DHT22;37895;53.240;6.572;2024-03-06T12:30:42;9.70;99.90
51855;DHT22;37895;53.240;6.572;2024-03-06T12:33:09;9.70;99.90
51855;DHT22;37895;53.240;6.572;2024-03-06T12:35:36;9.50;99.90
51855;DHT22;37895;53.240;6.572;2024-03-06T12:38:14;9.60;99.90
51855;DHT22;37895;53.240;6.572;2024-03-06T12:40:41;9.70;99.90
51855;DHT22;37895;53.240;6.572;2024-03-06T12:43:07;9.80;99.90
51855;DHT22;37895;53.240;6.572;2024-03-06T12:45:33;10.00;99.90
51855;DHT22;37895;53.240;6.572;2024-03-06T12:47:59;9.90;99.90
51855;DHT22;37895;53.240;6.572;2024-03-06T12:50:25;9.90;99.90
51855;DHT22;37895;53.240;6.572;2024-03-06T12:52:50;9.90;99.90
51855;DHT22;37895;53.240;6.572;2024-03-06T12:55:17;10.00;99.90
51855;DHT22;37895;53.240;6.572;2024-03-06T12:57:45;10.00;99.90
51855;DHT22;37895;53.240;6.572;2024-03-06T13:00:12;10.10;99.90
51855;DHT22;37895;53.240;6.572;2024-03-06T13:02:44;10.20;99.90
51855;DHT22;37895;53.240;6.572;2024-03-06T13:05:10;10.40;99.90
51855;DHT22;37895;53.240;6.572;2024-03-06T13:07:36;10.20;99.90
51855;DHT22;37895;53.240;6.572;2024-03-06T13:10:05;10.20;99.90
51855;DHT22;37895;53.240;6.572;2024-03-06T13:12:33;10.20;99.90
51855;DHT22;37895;53.240;6.572;2024-03-06T13:14:59;10.30;99.90
51855;DHT22;37895;53.240;6.572;2024-03-06T13:17:24;10.40;99.90
51855;DHT22;37895;53.240;6.572;2024-03-06T13:19:50;10.50;99.90
51855;DHT22;37895;53.240;6.572;2024-03-06T13:22:16;10.60;99.90
51855;DHT22;37895;53.240;6.572;2024-03-06T13:24:41;10.60;99.90
51855;DHT22;37895;53.240;6.572;2024-03-06T13:27:07;10.70;99.90
51855;DHT22;37895;53.240;6.572;2024-03-06T13:29:33;10.70;99.90
51855;DHT22;37895;53.240;6.572;2024-03-06T13:31:59;10.70;99.90
51855;DHT22;37895;53.240;6.572;2024-03-06T13:34:25;10.80;99.90
51855;DHT22;37895;53.240;6.572;2024-03-06T13:36:50;10.90;99.90
51855;DHT22;37895;53.240;6.572;2024-03-06T13:39:16;11.00;99.90
51855;DHT22;37895;53.240;6.572;2024-03-06T13:41:42;11.10;99.90
51855;DHT22;37895;53.240;6.572;2024-03-06T13:44:07;11.20;99.90
51855;DHT22;37895;53.240;6.572;2024-03-06T13:46:34;11.20;99.90
51855;DHT22;37895;53.240;6.572;2024-03-06T13:49:00;11.30;99.90
51855;DHT22;37895;53.240;6.572;2024-03-06T13:51:26;11.40;99.90
51855;DHT22;37895;53.240;6.572;2024-03-06T13:53:52;11.50;99.90
51855;DHT22;37895;53.240;6.572;2024-03-06T13:56:17;11.50;99.90
51855;DHT22;37895;53.240;6.572;2024-03-06T13:58:43;11.50;99.90
51855;DHT22;37895;53.240;6.572;2024-03-06T14:01:09;11.60;99.90
51855;DHT22;37895;53.240;6.572;2024-03-06T14:03:35;11.60;99.90
51855;DHT22;37895;53.240;6.572;2024-03-06T14:06:03;11.70;99.90
51855;DHT22;37895;53.240;6.572;2024-03-06T14:08:29;11.90;99.90
51855;DHT22;37895;53.240;6.572;2024-03-06T14:10:54;12.10;99.90
51855;DHT22;37895;53.240;6.572;2024-03-06T14:13:20;12.30;99.90
51855;DHT22;37895;53.240;6.572;2024-03-06T14:15:46;12.50;99.90
51855;DHT22;37895;53.240;6.572;2024-03-06T14:18:13;12.70;99.90
51855;DHT22;37895;53.240;6.572;2024-03-06T14:20:39;12.80;99.90
51855;DHT22;37895;53.240;6.572;2024-03-06T14:23:05;12.90;99.90
51855;DHT22;37895;53.240;6.572;2024-03-06T14:25:30;12.50;99.90
51855;DHT22;37895;53.240;6.572;2024-03-06T14:28:00;12.40;99.90
51855;DHT22;37895;53.240;6.572;2024-03-06T14:30:26;12.30;99.90
51855;DHT22;37895;53.240;6.572;2024-03-06T14:32:54;12.10;99.90
51855;DHT22;37895;53.240;6.572;2024-03-06T14:35:20;12.10;99.90
51855;DHT22;37895;53.240;6.572;2024-03-06T14:37:45;12.00;99.90
51855;DHT22;37895;53.240;6.572;2024-03-06T14:40:11;11.90;99.90
51855;DHT22;37895;53.240;6.572;2024-03-06T14:42:37;11.60;99.90
51855;DHT22;37895;53.240;6.572;2024-03-06T14:45:03;11.50;99.90
51855;DHT22;37895;53.240;6.572;2024-03-06T14:47:31;11.30;99.90
51855;DHT22;37895;53.240;6.572;2024-03-06T14:49:57;11.40;99.90
51855;DHT22;37895;53.240;6.572;2024-03-06T14:52:23;11.50;99.90
51855;DHT22;37895;53.240;6.572;2024-03-06T14:54:48;11.60;99.90
51855;DHT22;37895;53.240;6.572;2024-03-06T14:57:14;11.80;99.90
51855;DHT22;37895;53.240;6.572;2024-03-06T14:59:40;11.90;99.90
51855;DHT22;37895;53.240;6.572;2024-03-06T15:02:06;11.90;99.90
51855;DHT22;37895;53.240;6.572;2024-03-06T15:04:31;11.90;99.90
51855;DHT22;37895;53.240;6.572;2024-03-06T15:06:57;11.80;99.90
51855;DHT22;37895;53.240;6.572;2024-03-06T15:09:25;11.60;99.90
51855;DHT22;37895;53.240;6.572;2024-03-06T15:11:51;11.40;99.90
51855;DHT22;37895;53.240;6.572;2024-03-06T15:14:18;11.30;99.90
51855;DHT22;37895;53.240;6.572;2024-03-06T15:16:44;11.20;99.90
51855;DHT22;37895;53.240;6.572;2024-03-06T15:19:10;11.10;99.90
51855;DHT22;37895;53.240;6.572;2024-03-06T15:21:36;11.10;99.90
51855;DHT22;37895;53.240;6.572;2024-03-06T15:24:02;10.90;99.90
51855;DHT22;37895;53.240;6.572;2024-03-06T15:26:27;10.90;99.90
51855;DHT22;37895;53.240;6.572;2024-03-06T15:28:53;10.70;99.90
51855;DHT22;37895;53.240;6.572;2024-03-06T15:31:19;10.70;99.90
51855;DHT22;37895;53.240;6.572;2024-03-06T15:33:45;10.60;99.90
51855;DHT22;37895;53.240;6.572;2024-03-06T15:36:15;10.60;99.90
51855;DHT22;37895;53.240;6.572;2024-03-06T15:38:42;10.40;99.90
51855;DHT22;37895;53.240;6.572;2024-03-06T15:41:07;10.40;99.90
51855;DHT22;37895;53.240;6.572;2024-03-06T15:43:35;10.40;99.90
51855;DHT22;37895;53.240;6.572;2024-03-06T15:46:01;10.40;99.90
51855;DHT22;37895;53.240;6.572;2024-03-06T15:48:26;10.40;99.90
51855;DHT22;37895;53.240;6.572;2024-03-06T15:50:53;10.30;99.90